createdAt,value
2023-01-06T00:03:23.279Z,2.70
2023-01-06T00:07:34.541Z,3.30
2023-01-06T00:11:47.797Z,2.97
2023-01-06T00:16:00.474Z,3.07
2023-01-06T00:20:21.599Z,2.83
2023-01-06T00:24:34.889Z,3.17
2023-01-06T00:28:56.941Z,2.53
2023-01-06T00:33:12.019Z,3.00
2023-01-06T00:37:33.416Z,2.57
2023-01-06T00:42:01.656Z,3.33
2023-01-06T00:46:11.487Z,3.87
2023-01-06T00:50:25.755Z,3.40
2023-01-06T00:54:38.500Z,3.30
2023-01-06T00:59:03.733Z,2.63
2023-01-06T01:03:16.087Z,3.13
2023-01-06T01:07:27.199Z,3.30
2023-01-06T01:11:55.864Z,3.10
2023-01-06T01:16:12.982Z,3.73
2023-01-06T01:20:38.698Z,3.63
2023-01-06T01:24:55.260Z,3.17
2023-01-06T01:29:18.005Z,3.07
2023-01-06T01:33:28.557Z,3.13
2023-01-06T01:37:43.301Z,3.57
2023-01-06T01:41:56.420Z,3.37
2023-01-06T01:46:09.203Z,3.07
2023-01-06T01:50:33.342Z,3.10
2023-01-06T01:54:45.160Z,2.83
2023-01-06T01:58:59.387Z,3.20
2023-01-06T02:03:15.612Z,2.97
2023-01-06T02:07:32.402Z,3.23
2023-01-06T02:11:50.320Z,2.73
2023-01-06T02:16:14.159Z,3.10
2023-01-06T02:20:49.746Z,3.63
2023-01-06T02:25:54.822Z,3.17
2023-01-06T02:30:45.677Z,3.83
2023-01-06T02:35:12.023Z,3.50
2023-01-06T02:39:32.921Z,3.63
2023-01-06T02:43:51.200Z,4.30
2023-01-06T02:48:09.388Z,3.83
2023-01-06T02:52:33.222Z,3.70
2023-01-06T02:56:52.160Z,3.17
2023-01-06T03:01:13.536Z,3.00
2023-01-06T03:05:25.543Z,3.40
2023-01-06T03:09:38.977Z,3.57
2023-01-06T03:13:52.482Z,3.10
2023-01-06T03:18:02.972Z,3.17
2023-01-06T03:22:15.901Z,3.10
2023-01-06T03:26:31.360Z,3.50
2023-01-06T03:31:05.235Z,3.63
2023-01-06T03:35:24.339Z,3.43
2023-01-06T03:39:47.304Z,3.40
2023-01-06T03:44:08.041Z,3.33
2023-01-06T03:48:25.280Z,3.80
2023-01-06T03:52:51.024Z,3.53
2023-01-06T03:57:10.620Z,2.97
2023-01-06T04:01:24.201Z,3.33
2023-01-06T04:05:36.420Z,3.90
2023-01-06T04:09:46.562Z,3.13
2023-01-06T04:13:59.420Z,4.03
2023-01-06T04:18:19.222Z,3.97
2023-01-06T04:22:30.143Z,4.33
2023-01-06T04:26:40.580Z,3.33
2023-01-06T04:30:55.565Z,4.33
2023-01-06T04:35:12.321Z,3.30
2023-01-06T04:39:22.000Z,3.50
2023-01-06T04:43:31.543Z,3.80
2023-01-06T04:47:40.915Z,3.37
2023-01-06T04:51:52.001Z,3.57
2023-01-06T04:56:06.283Z,4.20
2023-01-06T05:00:18.062Z,3.87
2023-01-06T05:04:30.200Z,3.60
2023-01-06T05:08:46.056Z,3.73
2023-01-06T05:12:55.622Z,3.73
2023-01-06T05:17:05.274Z,3.73
2023-01-06T05:21:15.700Z,3.77
2023-01-06T05:25:26.615Z,3.87
2023-01-06T05:29:36.536Z,3.47
2023-01-06T05:33:46.565Z,4.17
2023-01-06T05:38:02.303Z,3.70
2023-01-06T05:42:13.562Z,3.37
2023-01-06T05:46:23.082Z,3.47
2023-01-06T05:50:32.751Z,3.10
2023-01-06T05:54:42.541Z,2.87
2023-01-06T05:58:55.237Z,3.27
2023-01-06T06:03:06.468Z,3.27
2023-01-06T06:07:19.262Z,3.80
2023-01-06T06:11:29.820Z,3.53
2023-01-06T06:15:41.668Z,3.47
2023-01-06T06:19:51.817Z,3.53
2023-01-06T06:24:02.169Z,3.67
2023-01-06T06:28:11.782Z,3.40
2023-01-06T06:32:24.845Z,3.00
2023-01-06T06:36:38.281Z,3.03
2023-01-06T06:40:49.021Z,3.37
2023-01-06T06:45:04.368Z,3.47
2023-01-06T06:49:19.587Z,3.30
2023-01-06T06:53:34.076Z,4.00
2023-01-06T06:57:47.019Z,2.83
2023-01-06T07:01:59.704Z,3.33
2023-01-06T07:06:16.353Z,2.87
2023-01-06T07:10:31.738Z,2.90
2023-01-06T07:14:43.012Z,3.73
2023-01-06T07:19:08.437Z,3.73
2023-01-06T07:23:22.891Z,2.67
2023-01-06T07:27:36.779Z,3.13
2023-01-06T07:31:47.418Z,3.93
2023-01-06T07:35:58.264Z,3.87
2023-01-06T07:40:10.698Z,3.03
2023-01-06T07:44:23.157Z,3.00
2023-01-06T07:48:34.236Z,2.77
2023-01-06T07:52:43.901Z,3.13
2023-01-06T07:57:01.706Z,3.57
2023-01-06T08:01:23.975Z,3.33
2023-01-06T08:10:09.715Z,3.40
2023-01-06T08:14:45.299Z,3.33
2023-01-06T08:56:35.660Z,3.33
2023-01-06T09:00:45.835Z,2.87
2023-01-06T09:04:56.413Z,3.43
2023-01-06T09:09:12.756Z,2.93
2023-01-06T09:13:31.365Z,3.80
2023-01-06T09:17:50.455Z,3.67
2023-01-06T09:22:05.241Z,3.17
2023-01-06T09:26:18.692Z,3.30
2023-01-06T09:30:34.655Z,3.67
2023-01-06T09:34:45.757Z,2.90
2023-01-06T09:38:56.554Z,3.23
2023-01-06T09:43:21.118Z,3.30
2023-01-06T09:47:36.054Z,2.87
2023-01-06T09:51:50.496Z,4.20
2023-01-06T09:56:06.631Z,3.30
2023-01-06T10:00:30.813Z,3.70
2023-01-06T10:04:48.922Z,3.93
2023-01-06T10:09:18.842Z,4.40
2023-01-06T10:13:42.352Z,2.90
2023-01-06T10:18:03.156Z,3.47
2023-01-06T10:22:22.445Z,3.53
2023-01-06T10:26:48.936Z,3.30
2023-01-06T10:35:29.718Z,3.20
2023-01-06T10:39:44.676Z,3.23
2023-01-06T10:43:57.170Z,3.00
2023-01-06T10:48:09.772Z,3.57
2023-01-06T10:52:19.495Z,3.30
2023-01-06T10:56:46.780Z,3.07
2023-01-06T11:05:56.173Z,3.07
2023-01-06T11:44:50.535Z,2.83
2023-01-06T11:54:13.735Z,3.87
2023-01-06T12:04:00.814Z,3.70
2023-01-06T12:22:07.195Z,3.53
2023-01-06T12:45:20.434Z,4.17
2023-01-06T12:49:37.258Z,3.07
2023-01-06T12:53:56.207Z,3.90
2023-01-06T12:58:17.112Z,3.67
2023-01-06T13:03:10.353Z,3.40
2023-01-06T13:12:52.594Z,2.93
2023-01-06T13:17:33.613Z,3.17
2023-01-06T13:21:48.954Z,3.67
2023-01-06T13:31:27.750Z,3.60
2023-01-06T13:46:22.432Z,4.57
2023-01-06T13:56:31.900Z,3.57
2023-01-06T14:00:56.575Z,3.20
2023-01-06T14:05:32.551Z,3.77
2023-01-06T14:15:55.811Z,4.70
2023-01-06T14:20:07.559Z,3.73
2023-01-06T14:33:55.255Z,4.20
2023-01-06T14:38:09.014Z,4.23
2023-01-06T14:47:19.693Z,4.83
2023-01-06T14:51:33.030Z,4.20
2023-01-06T14:55:52.569Z,4.10
2023-01-06T15:00:19.041Z,4.70
2023-01-06T15:04:37.412Z,4.00
2023-01-06T15:08:48.834Z,5.23
2023-01-06T15:12:58.771Z,5.60
2023-01-06T15:17:36.276Z,5.60
2023-01-06T15:22:06.775Z,5.53
2023-01-06T15:26:22.004Z,5.57
2023-01-06T15:30:57.317Z,5.40
2023-01-06T15:35:08.350Z,6.00
2023-01-06T15:39:25.459Z,6.10
2023-01-06T15:43:59.590Z,5.47
2023-01-06T15:48:13.936Z,6.33
2023-01-06T15:52:33.515Z,5.97
2023-01-06T15:56:46.193Z,6.57
2023-01-06T16:01:01.913Z,5.77
2023-01-06T16:05:40.876Z,6.47
2023-01-06T16:09:50.689Z,6.37
2023-01-06T16:14:00.733Z,5.30
2023-01-06T16:18:12.254Z,5.80
2023-01-06T16:22:32.334Z,7.00
2023-01-06T16:26:45.714Z,6.47
2023-01-06T16:31:09.911Z,6.90
2023-01-06T16:35:22.463Z,7.97
2023-01-06T16:39:33.472Z,6.50
2023-01-06T16:43:42.777Z,6.07
2023-01-06T16:47:52.938Z,6.33
2023-01-06T16:56:32.077Z,6.40
2023-01-06T17:05:35.956Z,7.27
2023-01-06T17:10:27.297Z,6.47
2023-01-06T17:14:56.817Z,6.30
2023-01-06T17:19:18.017Z,7.30
2023-01-06T17:23:27.271Z,5.77
2023-01-06T17:47:47.997Z,6.57
2023-01-06T17:52:43.675Z,6.63
2023-01-06T18:21:59.059Z,6.70
2023-01-06T18:31:43.783Z,7.40
